Time;durP1;ratioP1;P1;durP2;ratioP2;P2;SDS_P1;SDS_P2;PMS_P1;PMS_P2;Temp;Humidity;BMP_temperature;BMP_pressure;BME280_temperature;BME280_humidity;BME280_pressure;Samples;Min_cycle;Max_cycle;Signal;HPM_P1;HPM_P2
2021/10/29 00:00:21;;;;;;;7.88;3.60;;;10.10;99.90;;;;;;5093513;28;20032;-78
2021/10/29 00:02:46;;;;;;;8.43;3.10;;;10.10;99.90;;;;;;5093500;28;20024;-77
2021/10/29 00:05:12;;;;;;;8.57;3.03;;;10.10;99.90;;;;;;5091716;28;20024;-77
2021/10/29 00:07:38;;;;;;;7.80;3.30;;;10.10;99.90;;;;;;5093865;28;20476;-78
2021/10/29 00:10:05;;;;;;;7.78;3.33;;;10.10;99.90;;;;;;5093469;28;20036;-78
2021/10/29 00:12:34;;;;;;;14.07;3.55;;;10.00;99.90;;;;;;5096632;28;20051;-78
2021/10/29 00:14:59;;;;;;;10.20;3.25;;;10.00;99.90;;;;;;5098458;28;20036;-78
2021/10/29 00:17:25;;;;;;;7.05;3.08;;;10.00;99.90;;;;;;5098686;28;20567;-77
2021/10/29 00:19:51;;;;;;;11.32;3.50;;;10.00;99.90;;;;;;5098380;28;20017;-77
2021/10/29 00:22:16;;;;;;;10.00;3.88;;;10.00;99.90;;;;;;5098606;28;20016;-77
2021/10/29 00:24:42;;;;;;;9.23;3.40;;;10.00;99.90;;;;;;5079916;28;20556;-77
2021/10/29 00:27:08;;;;;;;10.68;3.17;;;10.00;99.90;;;;;;5100471;28;20031;-77
2021/10/29 00:29:33;;;;;;;9.50;2.88;;;9.90;99.90;;;;;;5102000;28;20028;-77
2021/10/29 00:31:59;;;;;;;9.18;3.45;;;9.90;99.90;;;;;;5102069;28;20020;-78
2021/10/29 00:34:24;;;;;;;10.32;3.67;;;10.00;99.90;;;;;;5101868;28;20396;-77
2021/10/29 00:36:50;;;;;;;9.98;2.92;;;10.00;99.90;;;;;;5099705;28;20157;-78
2021/10/29 00:39:16;;;;;;;8.07;3.38;;;10.00;99.90;;;;;;5097348;28;20035;-77
2021/10/29 00:41:42;;;;;;;12.05;3.65;;;10.00;99.90;;;;;;5097086;28;20028;-77
2021/10/29 00:44:08;;;;;;;9.02;3.63;;;10.00;99.90;;;;;;5096802;28;20027;-78
2021/10/29 00:46:33;;;;;;;7.82;3.40;;;9.90;99.90;;;;;;5096985;28;20434;-78
2021/10/29 00:49:00;;;;;;;9.88;3.35;;;10.00;99.90;;;;;;5096604;28;20038;-78
2021/10/29 00:51:26;;;;;;;12.10;3.63;;;10.00;99.90;;;;;;5096971;28;20046;-78
2021/10/29 00:53:52;;;;;;;7.97;3.53;;;9.90;99.90;;;;;;5095498;28;20024;-78
2021/10/29 00:56:18;;;;;;;10.18;3.30;;;9.90;99.90;;;;;;5096954;28;20024;-75
2021/10/29 00:58:44;;;;;;;7.70;2.63;;;9.90;99.90;;;;;;5096808;28;20500;-75
2021/10/29 01:01:10;;;;;;;7.38;3.35;;;9.80;99.90;;;;;;5093878;28;20024;-75
2021/10/29 01:03:40;;;;;;;14.73;4.07;;;9.80;99.90;;;;;;5078502;28;20030;-75
2021/10/29 01:06:08;;;;;;;9.38;3.53;;;9.80;99.90;;;;;;5076768;28;20473;-76
2021/10/29 01:08:35;;;;;;;11.45;4.45;;;9.80;99.90;;;;;;5075231;28;20507;-76
2021/10/29 01:11:01;;;;;;;8.82;3.08;;;9.80;99.90;;;;;;5076287;28;20397;-75
2021/10/29 01:13:27;;;;;;;10.07;3.83;;;9.80;99.90;;;;;;5076969;28;20385;-76
2021/10/29 01:15:56;;;;;;;13.82;3.85;;;9.80;99.90;;;;;;5095136;28;20449;-76
2021/10/29 01:18:22;;;;;;;;;;;9.80;99.90;;;;;;5097182;28;20055;-74
2021/10/29 01:20:47;;;;;;;10.98;3.33;;;9.80;99.90;;;;;;5094705;28;20430;-75
2021/10/29 01:23:13;;;;;;;14.38;4.60;;;9.80;99.90;;;;;;5095057;28;20024;-75
2021/10/29 01:25:38;;;;;;;9.63;3.33;;;9.70;99.90;;;;;;5081941;28;20027;-74
2021/10/29 01:28:10;;;;;;;13.63;4.95;;;9.70;99.90;;;;;;5096307;28;20035;-76
2021/10/29 01:30:36;;;;;;;7.88;3.75;;;9.70;99.90;;;;;;5096266;28;20031;-75
2021/10/29 01:33:01;;;;;;;8.98;4.35;;;9.70;99.90;;;;;;5096063;28;20035;-75
2021/10/29 01:35:28;;;;;;;10.38;4.00;;;9.70;99.90;;;;;;5077909;28;20462;-75
2021/10/29 01:37:54;;;;;;;11.18;4.47;;;9.70;99.90;;;;;;5096112;28;20024;-75
2021/10/29 01:40:19;;;;;;;10.18;4.32;;;9.70;99.90;;;;;;5077793;28;20472;-76
2021/10/29 01:42:47;;;;;;;9.00;3.80;;;9.70;99.90;;;;;;5082035;28;20066;-75
2021/10/29 01:45:14;;;;;;;10.77;3.90;;;9.70;99.90;;;;;;5094773;28;20042;-75
2021/10/29 01:47:39;;;;;;;10.13;4.03;;;9.70;99.90;;;;;;5095910;28;20266;-75
2021/10/29 01:50:07;;;;;;;9.13;3.90;;;9.70;99.90;;;;;;5095704;28;20053;-75
2021/10/29 01:52:32;;;;;;;8.60;3.63;;;9.70;99.90;;;;;;5095557;28;20016;-76
2021/10/29 01:54:58;;;;;;;10.90;3.95;;;9.60;99.90;;;;;;5095622;28;20035;-75
2021/10/29 01:57:24;;;;;;;11.77;4.93;;;9.60;99.90;;;;;;5095574;28;20032;-75
2021/10/29 01:59:49;;;;;;;11.52;4.25;;;9.60;99.90;;;;;;5077435;28;20024;-75
2021/10/29 02:02:15;;;;;;;11.05;4.00;;;9.60;99.90;;;;;;5077324;28;20157;-75
2021/10/29 02:04:40;;;;;;;12.32;3.90;;;9.60;99.90;;;;;;5077434;28;20024;-75
2021/10/29 02:07:06;;;;;;;12.68;4.57;;;9.70;99.90;;;;;;5077295;28;20008;-75
2021/10/29 02:09:32;;;;;;;8.73;3.83;;;9.70;99.90;;;;;;5095595;28;20021;-75
2021/10/29 02:11:58;;;;;;;9.02;4.00;;;9.70;99.90;;;;;;5095836;28;20020;-76
2021/10/29 02:14:23;;;;;;;10.80;3.83;;;9.70;99.90;;;;;;5095423;28;20020;-76
2021/10/29 02:16:49;;;;;;;10.80;3.95;;;9.60;99.90;;;;;;5095325;28;20027;-76
2021/10/29 02:19:15;;;;;;;10.95;3.72;;;9.60;99.90;;;;;;5095134;28;20031;-76
2021/10/29 02:21:40;;;;;;;8.55;4.00;;;9.50;99.90;;;;;;5095666;28;20024;-77
2021/10/29 02:24:06;;;;;;;13.63;4.18;;;9.50;99.90;;;;;;5077189;28;20031;-75
2021/10/29 02:26:34;;;;;;;10.40;3.67;;;9.60;99.90;;;;;;5095826;28;20055;-76
2021/10/29 02:29:00;;;;;;;27.27;6.10;;;9.60;99.90;;;;;;5094948;28;20070;-76
2021/10/29 02:31:26;;;;;;;10.48;3.85;;;9.60;99.90;;;;;;5093939;28;20491;-74
2021/10/29 02:33:53;;;;;;;10.05;3.88;;;9.60;99.90;;;;;;5094773;28;20013;-75
2021/10/29 02:36:19;;;;;;;11.73;3.70;;;9.60;99.90;;;;;;5095352;28;20043;-75
2021/10/29 02:38:44;;;;;;;9.10;3.38;;;9.60;99.90;;;;;;5094825;28;20050;-75
2021/10/29 02:41:10;;;;;;;14.20;4.13;;;9.60;99.90;;;;;;5095357;28;20031;-76
2021/10/29 02:43:36;;;;;;;9.15;3.72;;;9.60;99.90;;;;;;5086688;28;20481;-75
2021/10/29 02:46:01;;;;;;;14.05;3.85;;;9.60;99.90;;;;;;5093360;28;20017;-75
2021/10/29 02:48:27;;;;;;;8.60;3.90;;;9.60;99.90;;;;;;5093015;28;20119;-76
2021/10/29 02:50:52;;;;;;;11.65;4.30;;;9.60;99.90;;;;;;5076321;28;20089;-75
2021/10/29 02:53:18;;;;;;;9.88;3.65;;;9.60;99.90;;;;;;5094668;28;20098;-76
2021/10/29 02:55:44;;;;;;;15.48;4.75;;;9.60;99.90;;;;;;5094327;28;20020;-75
2021/10/29 02:58:09;;;;;;;9.48;3.55;;;9.60;99.90;;;;;;5094504;28;20434;-75
2021/10/29 03:00:35;;;;;;;13.30;4.30;;;9.60;99.90;;;;;;5094179;28;20032;-76
2021/10/29 03:03:01;;;;;;;11.32;4.50;;;9.60;99.90;;;;;;5094421;28;20103;-74
2021/10/29 03:05:27;;;;;;;9.52;4.20;;;9.60;99.90;;;;;;5094199;28;20487;-74
2021/10/29 03:07:52;;;;;;;13.18;4.25;;;9.60;99.90;;;;;;5094355;28;20465;-74
2021/10/29 03:10:18;;;;;;;9.52;4.45;;;9.60;99.90;;;;;;5094043;28;20024;-75
2021/10/29 03:12:44;;;;;;;8.70;3.80;;;9.60;99.90;;;;;;5094200;28;20659;-75
2021/10/29 03:15:11;;;;;;;11.75;4.28;;;9.60;99.90;;;;;;5094284;28;20028;-75
2021/10/29 03:17:38;;;;;;;11.60;4.32;;;9.60;99.90;;;;;;5092997;28;20097;-75
2021/10/29 03:20:06;;;;;;;9.10;4.40;;;9.50;99.90;;;;;;5080762;28;20089;-75
2021/10/29 03:22:32;;;;;;;8.48;4.25;;;9.50;99.90;;;;;;5094009;28;20012;-74
2021/10/29 03:24:57;;;;;;;9.73;3.78;;;9.50;99.90;;;;;;5093924;28;20487;-75
2021/10/29 03:27:23;;;;;;;11.25;4.40;;;9.50;99.90;;;;;;5093734;28;20024;-76
2021/10/29 03:29:49;;;;;;;8.10;4.25;;;9.50;99.90;;;;;;5093243;28;20074;-75
2021/10/29 03:32:17;;;;;;;9.93;3.28;;;9.50;99.90;;;;;;5092249;28;20032;-75
2021/10/29 03:34:43;;;;;;;9.23;4.00;;;9.50;99.90;;;;;;5093838;28;20027;-74
2021/10/29 03:37:26;;;;;;;9.07;3.85;;;9.50;99.90;;;;;;5094102;28;20095;-76
2021/10/29 03:39:59;;;;;;;9.43;4.13;;;9.50;99.90;;;;;;5075825;28;20031;-75
2021/10/29 03:42:30;;;;;;;9.43;3.78;;;9.50;99.90;;;;;;5075507;28;20028;-75
2021/10/29 03:45:01;;;;;;;10.88;3.45;;;9.50;99.90;;;;;;5075560;28;20023;-75
2021/10/29 03:47:30;;;;;;;8.10;3.38;;;9.50;99.90;;;;;;5081669;28;20114;-76
2021/10/29 03:50:01;;;;;;;12.40;4.65;;;9.50;99.90;;;;;;5093523;28;20110;-76
2021/10/29 03:52:29;;;;;;;7.32;3.20;;;9.50;99.90;;;;;;5093598;28;20503;-76
2021/10/29 03:54:57;;;;;;;7.25;3.60;;;9.50;99.90;;;;;;5092248;28;20066;-76
2021/10/29 03:59:48;;;;;;;12.25;4.22;;;9.50;99.90;;;;;;5093808;28;20039;-76
2021/10/29 04:02:14;;;;;;;7.65;3.13;;;9.60;99.90;;;;;;5092499;28;20043;-76
2021/10/29 04:04:40;;;;;;;9.98;3.67;;;9.60;99.90;;;;;;5093742;28;20530;-76
2021/10/29 04:07:05;;;;;;;11.57;4.10;;;9.60;99.90;;;;;;5093033;28;20024;-76
2021/10/29 04:09:31;;;;;;;10.65;3.80;;;9.60;99.90;;;;;;5092106;28;20020;-76
2021/10/29 04:11:56;;;;;;;10.93;3.60;;;9.60;99.90;;;;;;5092080;28;20024;-76
2021/10/29 04:14:28;;;;;;;13.68;3.70;;;9.60;99.90;;;;;;5092107;28;20020;-76
2021/10/29 04:16:55;;;;;;;8.10;3.67;;;9.60;99.90;;;;;;5092963;28;20448;-76
2021/10/29 04:19:21;;;;;;;6.22;2.90;;;9.60;99.90;;;;;;5075177;28;20051;-76
2021/10/29 04:21:46;;;;;;;8.02;3.58;;;9.50;99.90;;;;;;5074996;28;20063;-76
2021/10/29 04:24:12;;;;;;;9.55;3.17;;;9.50;99.90;;;;;;5093254;28;20053;-76
2021/10/29 04:26:38;;;;;;;11.13;3.65;;;9.50;99.90;;;;;;5092900;28;20024;-77
2021/10/29 04:29:15;;;;;;;8.30;3.45;;;9.50;99.90;;;;;;5091901;28;20098;-76
2021/10/29 04:31:49;;;;;;;8.65;3.30;;;9.50;99.90;;;;;;5093411;28;20385;-76
2021/10/29 04:34:22;;;;;;;8.00;3.65;;;9.50;99.90;;;;;;5093554;28;20028;-77
2021/10/29 04:36:49;;;;;;;6.15;2.88;;;9.40;99.90;;;;;;5091460;28;20032;-77
2021/10/29 04:39:15;;;;;;;11.70;4.07;;;9.50;99.90;;;;;;5075289;28;20020;-77
2021/10/29 04:41:42;;;;;;;12.48;4.20;;;9.50;99.90;;;;;;5092802;28;20067;-77
2021/10/29 04:44:08;;;;;;;7.47;3.47;;;9.50;99.90;;;;;;5093023;28;20019;-76
2021/10/29 04:46:35;;;;;;;8.43;3.70;;;9.50;99.90;;;;;;5092700;28;20035;-76
2021/10/29 04:49:01;;;;;;;10.43;3.97;;;9.50;99.90;;;;;;5092972;28;20020;-76
2021/10/29 04:51:27;;;;;;;10.15;4.07;;;9.50;99.90;;;;;;5078335;28;20111;-76
2021/10/29 04:53:54;;;;;;;10.40;3.28;;;9.50;99.90;;;;;;5093039;28;20028;-76
2021/10/29 04:56:19;;;;;;;8.52;3.50;;;9.50;99.90;;;;;;5092627;28;20017;-76
2021/10/29 04:58:45;;;;;;;5.93;3.00;;;9.40;99.90;;;;;;5091601;28;20526;-76
2021/10/29 05:01:11;;;;;;;6.90;3.17;;;9.40;99.90;;;;;;5091637;28;20032;-76
2021/10/29 05:03:36;;;;;;;10.73;4.32;;;9.40;99.90;;;;;;5091744;28;20016;-76
2021/10/29 05:06:02;;;;;;;7.60;3.55;;;9.50;99.90;;;;;;5092640;28;20469;-75
2021/10/29 05:08:27;;;;;;;9.52;4.05;;;9.50;99.90;;;;;;5092840;28;20024;-75
2021/10/29 05:10:53;;;;;;;6.00;3.17;;;9.50;99.90;;;;;;5092471;28;20028;-75
2021/10/29 05:13:18;;;;;;;7.82;3.75;;;9.40;99.90;;;;;;5095419;28;20031;-76
2021/10/29 05:15:44;;;;;;;8.57;3.22;;;9.40;99.90;;;;;;5096102;28;20034;-76
2021/10/29 05:18:16;;;;;;;17.00;4.43;;;9.40;99.90;;;;;;5096441;28;20503;-76
2021/10/29 05:20:43;;;;;;;9.40;3.65;;;9.40;99.90;;;;;;5096080;28;20024;-76
2021/10/29 05:23:09;;;;;;;8.63;3.58;;;9.40;99.90;;;;;;5096613;28;20043;-76
2021/10/29 05:25:34;;;;;;;6.70;2.78;;;9.30;99.90;;;;;;5090410;28;20024;-76
2021/10/29 05:28:00;;;;;;;7.70;3.33;;;9.30;99.90;;;;;;5096718;28;20020;-76
2021/10/29 05:30:27;;;;;;;12.02;3.33;;;9.30;99.90;;;;;;5096121;28;20024;-75
2021/10/29 05:32:52;;;;;;;7.28;3.00;;;9.30;99.90;;;;;;5096754;28;20380;-74
2021/10/29 05:35:18;;;;;;;8.65;2.80;;;9.30;99.90;;;;;;5095884;28;20031;-74
2021/10/29 05:37:44;;;;;;;7.75;3.15;;;9.30;99.90;;;;;;5094566;28;20027;-75
2021/10/29 05:40:10;;;;;;;7.50;3.35;;;9.30;99.90;;;;;;5095591;28;20377;-75
2021/10/29 05:42:36;;;;;;;9.07;3.00;;;9.40;99.90;;;;;;5096457;28;20035;-75
2021/10/29 05:45:05;;;;;;;8.82;3.38;;;9.40;99.90;;;;;;5095582;28;20024;-76
2021/10/29 05:47:32;;;;;;;;;;;9.40;99.90;;;;;;5095711;28;20024;-77
2021/10/29 05:49:58;;;;;;;8.07;2.70;;;9.40;99.90;;;;;;5094389;28;20024;-74
2021/10/29 05:52:26;;;;;;;7.88;2.80;;;9.40;99.90;;;;;;5095616;28;20031;-75
2021/10/29 05:57:20;;;;;;;9.25;3.13;;;9.40;99.90;;;;;;5095917;28;20024;-78
2021/10/29 05:59:46;;;;;;;10.48;3.20;;;9.40;99.90;;;;;;5099653;28;20504;-80
2021/10/29 06:02:12;;;;;;;8.10;3.33;;;9.50;99.90;;;;;;5098288;28;20021;-78
2021/10/29 06:04:40;;;;;;;8.13;2.58;;;9.40;99.90;;;;;;5088696;28;20024;-79
2021/10/29 06:07:06;;;;;;;8.75;3.42;;;9.40;99.90;;;;;;5094700;28;20038;-79
2021/10/29 06:09:31;;;;;;;10.10;3.20;;;9.50;99.90;;;;;;5099450;28;20020;-80
2021/10/29 06:11:57;;;;;;;9.32;3.42;;;9.50;99.90;;;;;;5103147;28;20040;-75
2021/10/29 06:14:23;;;;;;;13.65;3.25;;;9.40;99.90;;;;;;5092299;28;20032;-74
2021/10/29 06:16:49;;;;;;;7.03;2.47;;;9.50;99.90;;;;;;5087291;28;20106;-75
2021/10/29 06:19:15;;;;;;;5.63;2.90;;;9.40;99.90;;;;;;5094832;28;20107;-75
2021/10/29 06:21:50;;;;;;;8.70;2.60;;;9.40;99.90;;;;;;5095242;28;20012;-73
2021/10/29 06:24:17;;;;;;;10.52;3.15;;;9.40;99.90;;;;;;5083692;28;20038;-72
2021/10/29 06:26:55;;;;;;;10.00;3.63;;;9.40;99.90;;;;;;5092041;28;20013;-73
2021/10/29 06:29:21;;;;;;;9.07;3.03;;;9.50;99.90;;;;;;5076031;28;20024;-76
2021/10/29 06:31:46;;;;;;;6.95;2.70;;;9.40;99.90;;;;;;5094585;28;20032;-76
2021/10/29 06:34:13;;;;;;;6.70;2.78;;;9.40;99.90;;;;;;5088635;28;20028;-76
2021/10/29 06:36:40;;;;;;;6.88;3.17;;;9.40;99.90;;;;;;5093552;28;20069;-76
2021/10/29 06:39:07;;;;;;;8.88;3.53;;;9.40;99.90;;;;;;5084725;28;20055;-76
2021/10/29 06:41:32;;;;;;;7.20;2.83;;;9.40;99.90;;;;;;5094591;28;20020;-77
2021/10/29 07:02:04;;;;;;;7.63;2.65;;;9.80;99.90;;;;;;5094581;28;20048;-76
2021/10/29 07:39:56;;;;;;;7.90;2.50;;;9.90;99.90;;;;;;5094006;28;20039;-77
2021/10/29 07:40:22;;;;;;;10.23;3.03;;;10.60;99.90;;;;;;5093325;28;20396;-73
2021/10/29 07:45:22;;;;;;;4.40;2.28;;;10.80;99.90;;;;;;5093034;28;20023;-74
2021/10/29 07:47:48;;;;;;;8.27;2.10;;;10.90;99.90;;;;;;5075652;28;20124;-74
2021/10/29 07:50:16;;;;;;;8.55;2.65;;;10.90;99.90;;;;;;5073168;28;20115;-74
2021/10/29 07:52:43;;;;;;;5.45;2.10;;;11.00;99.90;;;;;;5090621;28;20020;-73
2021/10/29 07:55:11;;;;;;;7.75;1.95;;;11.10;99.90;;;;;;5075067;28;20024;-73
2021/10/29 07:57:37;;;;;;;5.57;2.72;;;11.20;99.90;;;;;;5093154;28;20027;-74
2021/10/29 08:00:05;;;;;;;6.15;2.67;;;11.30;99.90;;;;;;5093392;28;20029;-74
2021/10/29 08:02:32;;;;;;;6.93;2.10;;;11.30;99.90;;;;;;5092639;28;20020;-73
2021/10/29 08:04:57;;;;;;;4.60;1.98;;;11.40;99.90;;;;;;5075198;28;20024;-75
2021/10/29 08:07:23;;;;;;;10.90;2.92;;;11.40;99.90;;;;;;5093229;28;20024;-75
2021/10/29 08:09:49;;;;;;;7.32;2.95;;;11.50;99.90;;;;;;5093094;28;20492;-74
2021/10/29 08:12:16;;;;;;;7.25;3.20;;;11.50;99.90;;;;;;5093642;28;20056;-76
2021/10/29 08:14:43;;;;;;;7.70;2.85;;;11.50;99.90;;;;;;5093229;28;20035;-76
2021/10/29 08:17:08;;;;;;;9.82;2.35;;;11.60;99.90;;;;;;5093120;28;20054;-76
2021/10/29 08:19:34;;;;;;;6.95;3.03;;;11.70;99.90;;;;;;5093445;28;20027;-77
2021/10/29 08:22:01;;;;;;;9.00;3.42;;;11.70;99.90;;;;;;5093337;28;20427;-77
2021/10/29 08:24:27;;;;;;;6.60;3.08;;;11.80;99.90;;;;;;5091881;28;20013;-76
2021/10/29 08:26:54;;;;;;;8.32;4.00;;;11.90;99.90;;;;;;5093241;28;20095;-76
2021/10/29 08:29:21;;;;;;;12.65;4.63;;;11.90;99.90;;;;;;5093139;28;20098;-76
2021/10/29 08:31:47;;;;;;;8.88;4.25;;;11.90;99.90;;;;;;5092768;28;20567;-73
2021/10/29 08:34:13;;;;;;;6.95;3.50;;;11.90;99.90;;;;;;5092849;28;20427;-73
2021/10/29 08:36:40;;;;;;;11.38;4.60;;;11.90;99.90;;;;;;5092951;28;20391;-77
2021/10/29 08:39:07;;;;;;;9.18;3.47;;;11.90;99.90;;;;;;5091926;28;20023;-73
2021/10/29 08:41:34;;;;;;;9.05;3.53;;;11.90;99.90;;;;;;5092913;28;20475;-73
2021/10/29 08:43:59;;;;;;;7.00;3.65;;;12.10;99.90;;;;;;5093179;28;20008;-73
2021/10/29 08:46:28;;;;;;;6.50;3.40;;;12.20;99.90;;;;;;5091349;28;20020;-73
2021/10/29 08:48:57;;;;;;;14.77;4.00;;;12.30;99.90;;;;;;5096556;28;20027;-73
2021/10/29 08:51:23;;;;;;;8.48;3.72;;;12.40;99.90;;;;;;5096556;28;20027;-73
2021/10/29 08:53:52;;;;;;;10.70;3.92;;;12.50;99.90;;;;;;5078954;28;20047;-73
2021/10/29 08:56:18;;;;;;;8.20;3.33;;;12.60;99.90;;;;;;5078487;28;20442;-73
2021/10/29 08:59:13;;;;;;;5.85;3.42;;;12.60;99.90;;;;;;5096708;28;20020;-73
2021/10/29 09:02:12;;;;;;;11.50;3.60;;;12.80;99.90;;;;;;5078574;28;20036;-73
2021/10/29 09:10:08;;;;;;;5.65;2.50;;;13.10;99.90;;;;;;5096542;28;20057;-75
2021/10/29 09:32:27;;;;;;;4.07;1.52;;;13.60;99.90;;;;;;5057267;28;20035;-73
2021/10/29 09:34:57;;;;;;;4.38;2.15;;;13.80;99.90;;;;;;5096180;28;20534;-72
2021/10/29 09:37:25;;;;;;;5.18;1.77;;;13.90;99.90;;;;;;5096057;28;20114;-73
2021/10/29 09:39:54;;;;;;;3.53;1.60;;;14.00;99.90;;;;;;5095238;28;20024;-73
2021/10/29 09:42:21;;;;;;;;;;;14.10;99.90;;;;;;5095449;28;20051;-73
2021/10/29 09:44:53;;;;;;;8.13;2.08;;;14.20;99.90;;;;;;5095713;28;20313;-72
2021/10/29 09:47:23;;;;;;;3.55;1.73;;;14.40;99.90;;;;;;5095449;28;20024;-73
2021/10/29 09:50:02;;;;;;;8.73;2.22;;;14.40;99.90;;;;;;5095592;28;20032;-73
2021/10/29 09:57:34;;;;;;;3.90;2.05;;;14.70;99.90;;;;;;5095773;28;20040;-73
2021/10/29 10:00:05;;;;;;;4.50;2.08;;;14.80;99.90;;;;;;5093031;28;20130;-77
2021/10/29 10:02:33;;;;;;;6.10;2.10;;;14.80;99.90;;;;;;5094261;28;20497;-73
2021/10/29 10:05:02;;;;;;;7.82;1.95;;;14.90;99.90;;;;;;5095371;28;20064;-73
2021/10/29 10:07:33;;;;;;;5.32;1.65;;;14.90;99.90;;;;;;5095029;28;20477;-74
2021/10/29 10:10:00;;;;;;;5.38;2.00;;;15.00;99.90;;;;;;5094993;28;20027;-76
2021/10/29 10:12:32;;;;;;;6.35;1.98;;;14.90;99.90;;;;;;5095050;28;20016;-76
2021/10/29 10:15:00;;;;;;;3.90;1.60;;;14.80;99.90;;;;;;5095280;28;20397;-76
2021/10/29 10:17:27;;;;;;;4.72;1.88;;;14.70;99.90;;;;;;5094056;28;20082;-76
2021/10/29 10:19:54;;;;;;;5.07;1.90;;;14.60;99.90;;;;;;5095093;28;20020;-76
2021/10/29 10:22:20;;;;;;;5.50;2.30;;;14.50;99.90;;;;;;5095147;28;20020;-75
2021/10/29 10:24:55;;;;;;;14.65;3.47;;;14.50;99.90;;;;;;5093584;28;20481;-76
2021/10/29 10:43:57;;;;;;;4.20;1.30;;;14.70;99.90;;;;;;5095255;28;20036;-72
2021/10/29 10:46:24;;;;;;;7.07;2.22;;;14.80;99.90;;;;;;5093402;28;20615;-72
2021/10/29 11:10:14;;;;;;;4.32;2.28;;;15.60;99.90;;;;;;5094091;28;20028;-73
2021/10/29 11:12:44;;;;;;;4.45;1.88;;;15.70;99.90;;;;;;5094668;28;20028;-72
2021/10/29 11:15:17;;;;;;;3.28;1.75;;;15.80;99.90;;;;;;5092887;28;20093;-73
2021/10/29 11:17:57;;;;;;;5.68;1.60;;;15.90;99.90;;;;;;5094226;28;20093;-73
2021/10/29 11:20:52;;;;;;;4.22;2.25;;;16.00;99.90;;;;;;5093065;28;20480;-73
2021/10/29 11:23:26;;;;;;;6.72;2.38;;;16.20;99.90;;;;;;5094423;28;20020;-74
2021/10/29 11:26:05;;;;;;;4.45;1.90;;;16.30;99.90;;;;;;5094514;28;20020;-73
2021/10/29 11:28:53;;;;;;;3.70;2.25;;;16.40;99.90;;;;;;5093801;28;20373;-73
2021/10/29 11:31:25;;;;;;;5.80;2.75;;;16.40;99.90;;;;;;5096071;28;20027;-73
2021/10/29 11:33:53;;;;;;;6.18;2.08;;;16.50;99.90;;;;;;5098856;28;20050;-73
2021/10/29 11:36:27;;;;;;;5.85;2.10;;;16.60;99.90;;;;;;5097408;28;20020;-74
2021/10/29 11:38:54;;;;;;;4.53;1.58;;;16.70;99.90;;;;;;5096152;28;20048;-74
2021/10/29 11:41:25;;;;;;;3.25;1.20;;;16.80;99.90;;;;;;5093785;28;20102;-74
2021/10/29 11:43:57;;;;;;;5.20;1.25;;;16.80;99.90;;;;;;5093685;28;20020;-74
2021/10/29 11:46:23;;;;;;;7.85;1.85;;;16.90;99.90;;;;;;5093963;28;20020;-74
2021/10/29 11:48:52;;;;;;;3.70;1.10;;;17.00;99.90;;;;;;5093471;28;20495;-74
2021/10/29 11:51:19;;;;;;;2.20;1.13;;;17.10;99.90;;;;;;5094173;28;20024;-74
2021/10/29 11:54:15;;;;;;;1.88;0.88;;;17.30;99.90;;;;;;5093638;28;20031;-74
2021/10/29 11:57:19;;;;;;;4.60;1.00;;;17.40;99.90;;;;;;5092855;28;20051;-74
2021/10/29 12:07:19;;;;;;;4.22;0.30;;;17.90;99.90;;;;;;5093540;28;20039;-76
2021/10/29 12:09:50;;;;;;;1.52;0.22;;;18.00;99.90;;;;;;5092301;28;20016;-76
2021/10/29 12:12:28;;;;;;;3.97;1.08;;;18.00;99.90;;;;;;5093456;28;20020;-76
2021/10/29 12:14:55;;;;;;;;;;;18.10;99.90;;;;;;5093789;28;20024;-76
2021/10/29 12:17:32;;;;;;;2.20;0.20;;;18.10;99.90;;;;;;5092038;28;19904;-73
2021/10/29 12:20:18;;;;;;;0.70;0.20;;;18.20;99.90;;;;;;5092031;28;20457;-73
2021/10/29 12:22:50;;;;;;;2.65;0.40;;;18.30;99.30;;;;;;5094245;28;20016;-73
2021/10/29 12:28:08;;;;;;;2.88;0.40;;;18.40;99.10;;;;;;5098365;28;20458;-73
2021/10/29 12:59:02;;;;;;;2.03;0.40;;;19.40;95.80;;;;;;5097780;28;20177;-76
2021/10/29 13:04:11;;;;;;;1.65;0.28;;;19.60;95.40;;;;;;5097041;28;20032;-77
2021/10/29 13:06:49;;;;;;;3.08;0.30;;;19.60;93.70;;;;;;5100486;28;20072;-77
2021/10/29 13:09:15;;;;;;;;;;;19.50;93.80;;;;;;5096969;28;20453;-77
2021/10/29 13:11:50;;;;;;;3.03;0.43;;;19.50;93.40;;;;;;5095279;28;19998;-76
2021/10/29 13:14:24;;;;;;;3.50;0.45;;;20.80;92.70;;;;;;5095252;28;20054;-76
2021/10/29 13:16:50;;;;;;;1.67;0.50;;;19.50;93.20;;;;;;5096498;28;20027;-75
2021/10/29 13:27:33;;;;;;;1.55;0.20;;;19.80;91.70;;;;;;5096498;28;20040;-75
2021/10/29 13:38:21;;;;;;;2.15;0.10;;;20.50;89.60;;;;;;5072602;28;20039;-77
2021/10/29 13:51:42;;;;;;;1.63;0.32;;;21.20;84.90;;;;;;5096543;28;20507;-77
2021/10/29 14:02:15;;;;;;;0.60;0.15;;;20.80;82.80;;;;;;5095250;28;20115;-76
2021/10/29 14:30:30;;;;;;;1.48;0.63;;;19.20;91.70;;;;;;5095504;28;20070;-73
2021/10/29 14:32:31;;;;;;;1.63;0.20;;;19.00;91.90;;;;;;5081518;28;20078;-73
2021/10/29 14:35:00;;;;;;;1.08;0.13;;;18.70;93.10;;;;;;5095167;28;20017;-73
2021/10/29 14:47:46;;;;;;;3.45;0.20;;;17.80;97.80;;;;;;5094711;28;20032;-76
2021/10/29 14:50:25;;;;;;;0.50;0.20;;;17.70;97.90;;;;;;5093028;28;20111;-75
2021/10/29 15:30:26;;;;;;;3.55;0.77;;;17.00;99.90;;;;;;5059573;28;20039;-73
2021/10/29 15:51:56;;;;;;;6.00;0.22;;;16.60;99.90;;;;;;5093697;28;20031;-76
2021/10/29 15:54:22;;;;;;;3.58;0.30;;;16.50;99.90;;;;;;5092442;28;20051;-76
2021/10/29 15:56:54;;;;;;;3.45;0.40;;;16.50;99.90;;;;;;5093572;28;20036;-74
2021/10/29 15:59:32;;;;;;;3.50;0.60;;;16.50;99.90;;;;;;5093819;28;20104;-73
2021/10/29 16:18:31;;;;;;;7.15;0.63;;;16.10;99.90;;;;;;5016568;28;20452;-75
2021/10/29 16:20:57;;;;;;;4.50;0.75;;;16.10;99.90;;;;;;5052464;28;20120;-76
2021/10/29 16:23:27;;;;;;;1.20;0.43;;;16.00;99.90;;;;;;5077933;28;20393;-76
2021/10/29 16:26:07;;;;;;;3.35;0.77;;;16.00;99.90;;;;;;5078197;28;20009;-76
2021/10/29 16:28:34;;;;;;;1.88;0.15;;;15.90;99.90;;;;;;5077526;28;20102;-76
2021/10/29 16:31:00;;;;;;;1.73;0.63;;;15.80;99.90;;;;;;5076945;28;20020;-76
2021/10/29 16:33:36;;;;;;;4.75;1.02;;;15.70;99.90;;;;;;5079927;28;20489;-76
2021/10/29 16:36:03;;;;;;;1.75;0.35;;;15.70;99.90;;;;;;5097837;28;20448;-76
2021/10/29 16:38:29;;;;;;;2.30;0.32;;;15.70;99.90;;;;;;5098174;28;20028;-76
2021/10/29 16:40:55;;;;;;;2.17;0.50;;;15.70;99.90;;;;;;5098112;28;20028;-76
2021/10/29 16:43:22;;;;;;;1.27;0.20;;;15.60;99.90;;;;;;5097807;28;20093;-76
2021/10/29 16:45:49;;;;;;;4.15;0.15;;;15.50;99.90;;;;;;5096240;28;20024;-76
2021/10/29 16:48:17;;;;;;;1.83;0.28;;;15.50;99.90;;;;;;5096821;28;20028;-76
2021/10/29 16:50:44;;;;;;;2.10;0.10;;;15.40;99.90;;;;;;5098281;28;20059;-76
2021/10/29 16:53:10;;;;;;;1.33;0.40;;;15.40;99.90;;;;;;5098153;28;20034;-76
2021/10/29 16:55:37;;;;;;;4.20;0.25;;;15.40;99.90;;;;;;5092712;28;20040;-76
2021/10/29 16:58:04;;;;;;;2.65;0.28;;;15.30;99.90;;;;;;5074995;28;20548;-73
2021/10/29 17:00:31;;;;;;;1.75;0.32;;;15.30;99.90;;;;;;5074468;28;20047;-73
2021/10/29 17:02:57;;;;;;;2.17;0.22;;;15.30;99.90;;;;;;5077436;28;20043;-74
2021/10/29 17:05:23;;;;;;;2.20;0.30;;;15.20;99.90;;;;;;5092756;28;20477;-74
2021/10/29 17:07:49;;;;;;;3.10;0.22;;;15.20;99.90;;;;;;5075080;28;20024;-73
2021/10/29 17:10:18;;;;;;;1.90;0.20;;;15.10;99.90;;;;;;5078579;28;20550;-74
2021/10/29 17:12:44;;;;;;;3.28;0.15;;;15.10;99.90;;;;;;5098421;28;20012;-74
2021/10/29 17:15:13;;;;;;;2.92;0.20;;;15.10;99.90;;;;;;5101414;28;20032;-73
2021/10/29 17:17:40;;;;;;;;;;;15.10;99.90;;;;;;5084409;28;20023;-72
2021/10/29 17:20:09;;;;;;;2.17;0.50;;;15.10;99.90;;;;;;5101446;28;20053;-73
2021/10/29 17:22:35;;;;;;;1.45;0.13;;;15.00;99.90;;;;;;5099941;28;20049;-73
2021/10/29 17:25:02;;;;;;;1.50;0.10;;;15.00;99.90;;;;;;5096446;28;20103;-73
2021/10/29 17:27:28;;;;;;;1.05;0.10;;;15.00;99.90;;;;;;5096007;28;20122;-73
2021/10/29 17:29:53;;;;;;;1.55;0.10;;;14.90;99.90;;;;;;5096543;28;20019;-73
2021/10/29 17:32:19;;;;;;;1.30;0.10;;;14.90;99.90;;;;;;5096220;28;20016;-77
2021/10/29 17:34:45;;;;;;;4.13;0.40;;;14.90;99.90;;;;;;5097622;28;20518;-78
2021/10/29 17:37:12;;;;;;;1.60;0.20;;;14.80;99.90;;;;;;5081672;28;20048;-71
2021/10/29 17:39:39;;;;;;;5.28;0.20;;;14.80;99.90;;;;;;5080018;28;20028;-72
2021/10/29 17:42:07;;;;;;;0.93;0.20;;;14.70;99.90;;;;;;5096860;28;20046;-72
2021/10/29 17:44:33;;;;;;;1.70;0.10;;;14.70;99.90;;;;;;5097322;28;20058;-72
2021/10/29 17:47:04;;;;;;;4.15;0.32;;;14.60;99.90;;;;;;5100684;28;20031;-72
2021/10/29 17:49:30;;;;;;;0.63;0.10;;;14.70;99.90;;;;;;5099738;28;20115;-75
2021/10/29 17:51:57;;;;;;;1.38;0.35;;;14.70;99.90;;;;;;5094621;28;20038;-75
2021/10/29 17:54:24;;;;;;;1.27;0.00;;;14.60;99.90;;;;;;5095510;28;20028;-75
2021/10/29 17:56:51;;;;;;;0.38;0.10;;;14.70;99.90;;;;;;5094150;28;20031;-76
2021/10/29 17:59:18;;;;;;;2.30;0.25;;;14.60;99.90;;;;;;5094489;28;20480;-76
2021/10/29 18:01:43;;;;;;;3.95;0.70;;;14.60;99.90;;;;;;5094388;28;20029;-75
2021/10/29 18:04:11;;;;;;;3.00;0.30;;;14.60;99.90;;;;;;5094466;28;20028;-72
2021/10/29 18:06:39;;;;;;;2.25;0.30;;;14.60;99.90;;;;;;5097130;28;20484;-72